sensor_id;sensor_type;location;lat;lon;timestamp;pressure;altitude;pressure_sealevel;temperature;humidity
35647;BME280;28680;45.642;13.756;2023-04-02T00:04:12;100383.44;;;12.78;100.00
35647;BME280;28680;45.642;13.756;2023-04-02T00:11:35;100380.16;;;12.66;100.00
35647;BME280;28680;45.642;13.756;2023-04-02T00:14:04;100379.16;;;12.77;100.00
35647;BME280;28680;45.642;13.756;2023-04-02T00:16:31;100376.25;;;12.80;100.00
35647;BME280;28680;45.642;13.756;2023-04-02T00:19:03;100382.91;;;12.74;100.00
35647;BME280;28680;45.642;13.756;2023-04-02T00:21:34;100379.88;;;12.69;100.00
35647;BME280;28680;45.642;13.756;2023-04-02T00:24:09;100375.28;;;12.71;100.00
35647;BME280;28680;45.642;13.756;2023-04-02T00:26:49;100372.53;;;12.73;100.00
35647;BME280;28680;45.642;13.756;2023-04-02T00:29:17;100374.84;;;12.76;100.00
35647;BME280;28680;45.642;13.756;2023-04-02T00:31:51;100369.31;;;12.79;100.00
35647;BME280;28680;45.642;13.756;2023-04-02T00:34:36;100366.94;;;12.76;100.00
35647;BME280;28680;45.642;13.756;2023-04-02T00:37:03;100371.53;;;12.74;100.00
35647;BME280;28680;45.642;13.756;2023-04-02T00:39:37;100367.84;;;12.57;100.00
35647;BME280;28680;45.642;13.756;2023-04-02T00:42:06;100373.09;;;12.66;100.00
35647;BME280;28680;45.642;13.756;2023-04-02T00:44:37;100368.34;;;12.70;100.00
35647;BME280;28680;45.642;13.756;2023-04-02T00:47:19;100370.53;;;12.84;100.00
35647;BME280;28680;45.642;13.756;2023-04-02T00:49:47;100373.69;;;12.98;100.00
35647;BME280;28680;45.642;13.756;2023-04-02T00:52:22;100362.31;;;12.97;100.00
35647;BME280;28680;45.642;13.756;2023-04-02T00:57:30;100360.59;;;13.06;100.00
35647;BME280;28680;45.642;13.756;2023-04-02T01:00:30;100350.38;;;13.03;100.00
35647;BME280;28680;45.642;13.756;2023-04-02T01:05:56;100365.34;;;13.02;100.00
35647;BME280;28680;45.642;13.756;2023-04-02T01:09:07;100361.78;;;12.94;100.00
35647;BME280;28680;45.642;13.756;2023-04-02T01:29:15;100354.34;;;12.79;100.00
35647;BME280;28680;45.642;13.756;2023-04-02T01:31:44;100353.78;;;12.76;100.00
35647;BME280;28680;45.642;13.756;2023-04-02T01:34:15;100359.22;;;12.74;100.00
35647;BME280;28680;45.642;13.756;2023-04-02T01:39:59;100362.69;;;12.75;100.00
35647;BME280;28680;45.642;13.756;2023-04-02T01:45:16;100364.19;;;12.77;100.00
35647;BME280;28680;45.642;13.756;2023-04-02T01:47:44;100365.72;;;12.70;100.00
35647;BME280;28680;45.642;13.756;2023-04-02T01:50:27;100371.00;;;12.70;100.00
35647;BME280;28680;45.642;13.756;2023-04-02T01:53:05;100362.94;;;12.72;100.00
35647;BME280;28680;45.642;13.756;2023-04-02T01:55:45;100363.81;;;12.62;100.00
35647;BME280;28680;45.642;13.756;2023-04-02T01:58:16;100371.56;;;12.64;100.00
35647;BME280;28680;45.642;13.756;2023-04-02T02:00:52;100370.47;;;12.66;100.00
35647;BME280;28680;45.642;13.756;2023-04-02T02:03:20;100369.75;;;12.64;100.00
35647;BME280;28680;45.642;13.756;2023-04-02T02:05:46;100367.38;;;12.81;100.00
35647;BME280;28680;45.642;13.756;2023-04-02T02:08:38;100367.47;;;12.89;100.00
35647;BME280;28680;45.642;13.756;2023-04-02T02:11:09;100367.09;;;12.84;100.00
35647;BME280;28680;45.642;13.756;2023-04-02T02:13:37;100371.78;;;12.90;100.00
35647;BME280;28680;45.642;13.756;2023-04-02T02:16:05;100366.38;;;12.92;100.00
35647;BME280;28680;45.642;13.756;2023-04-02T02:18:32;100363.72;;;12.92;100.00
35647;BME280;28680;45.642;13.756;2023-04-02T02:20:59;100364.53;;;12.92;100.00
35647;BME280;28680;45.642;13.756;2023-04-02T02:23:27;100368.84;;;12.93;100.00
35647;BME280;28680;45.642;13.756;2023-04-02T02:25:54;100358.75;;;12.88;100.00
35647;BME280;28680;45.642;13.756;2023-04-02T02:28:28;100359.72;;;12.87;100.00
35647;BME280;28680;45.642;13.756;2023-04-02T02:31:06;100349.88;;;12.90;100.00
35647;BME280;28680;45.642;13.756;2023-04-02T02:33:42;100360.13;;;12.83;100.00
35647;BME280;28680;45.642;13.756;2023-04-02T02:36:48;100356.56;;;12.84;100.00
35647;BME280;28680;45.642;13.756;2023-04-02T02:39:39;100361.81;;;12.84;100.00
35647;BME280;28680;45.642;13.756;2023-04-02T02:44:43;100364.88;;;12.79;100.00
35647;BME280;28680;45.642;13.756;2023-04-02T02:47:35;100377.25;;;12.69;100.00
35647;BME280;28680;45.642;13.756;2023-04-02T02:50:06;100380.13;;;12.76;100.00
35647;BME280;28680;45.642;13.756;2023-04-02T02:52:37;100388.56;;;12.79;100.00
35647;BME280;28680;45.642;13.756;2023-04-02T02:55:23;100386.38;;;12.75;100.00
35647;BME280;28680;45.642;13.756;2023-04-02T02:58:14;100392.47;;;12.75;100.00
35647;BME280;28680;45.642;13.756;2023-04-02T03:00:42;100387.06;;;12.77;100.00
35647;BME280;28680;45.642;13.756;2023-04-02T03:03:13;100384.97;;;12.80;100.00
35647;BME280;28680;45.642;13.756;2023-04-02T03:05:41;100396.88;;;12.84;100.00
35647;BME280;28680;45.642;13.756;2023-04-02T03:08:37;100389.78;;;12.85;100.00
35647;BME280;28680;45.642;13.756;2023-04-02T03:11:15;100390.34;;;12.88;100.00
35647;BME280;28680;45.642;13.756;2023-04-02T03:13:48;100399.06;;;12.89;100.00
35647;BME280;28680;45.642;13.756;2023-04-02T03:16:38;100392.69;;;12.92;100.00
35647;BME280;28680;45.642;13.756;2023-04-02T03:19:28;100395.19;;;12.93;100.00
35647;BME280;28680;45.642;13.756;2023-04-02T03:22:36;100396.44;;;12.99;100.00
35647;BME280;28680;45.642;13.756;2023-04-02T03:27:48;100397.28;;;12.90;100.00
35647;BME280;28680;45.642;13.756;2023-04-02T03:30:41;100402.41;;;12.91;100.00
35647;BME280;28680;45.642;13.756;2023-04-02T03:33:20;100404.16;;;13.00;100.00
35647;BME280;28680;45.642;13.756;2023-04-02T03:36:32;100400.72;;;13.00;100.00
35647;BME280;28680;45.642;13.756;2023-04-02T03:41:50;100406.78;;;13.00;100.00
35647;BME280;28680;45.642;13.756;2023-04-02T03:44:36;100408.75;;;12.98;100.00
35647;BME280;28680;45.642;13.756;2023-04-02T03:47:15;100411.56;;;12.97;100.00
35647;BME280;28680;45.642;13.756;2023-04-02T03:49:55;100410.97;;;13.03;100.00
35647;BME280;28680;45.642;13.756;2023-04-02T03:52:27;100421.50;;;13.03;100.00
35647;BME280;28680;45.642;13.756;2023-04-02T03:54:56;100418.31;;;12.99;100.00
35647;BME280;28680;45.642;13.756;2023-04-02T03:58:03;100422.59;;;13.00;100.00
35647;BME280;28680;45.642;13.756;2023-04-02T04:03:50;100425.00;;;12.94;100.00
35647;BME280;28680;45.642;13.756;2023-04-02T04:06:28;100426.94;;;12.92;100.00
35647;BME280;28680;45.642;13.756;2023-04-02T04:09:19;100424.19;;;12.93;100.00
35647;BME280;28680;45.642;13.756;2023-04-02T04:12:00;100421.94;;;12.88;100.00
35647;BME280;28680;45.642;13.756;2023-04-02T04:14:34;100421.03;;;12.80;100.00
35647;BME280;28680;45.642;13.756;2023-04-02T04:19:48;100434.59;;;12.75;100.00
35647;BME280;28680;45.642;13.756;2023-04-02T04:22:25;100432.25;;;12.72;100.00
35647;BME280;28680;45.642;13.756;2023-04-02T04:25:04;100437.25;;;12.65;100.00
35647;BME280;28680;45.642;13.756;2023-04-02T04:33:24;100443.19;;;12.67;100.00
35647;BME280;28680;45.642;13.756;2023-04-02T04:36:02;100452.91;;;12.77;100.00
35647;BME280;28680;45.642;13.756;2023-04-02T04:38:35;100456.66;;;12.74;100.00
35647;BME280;28680;45.642;13.756;2023-04-02T04:41:17;100456.25;;;12.69;100.00
35647;BME280;28680;45.642;13.756;2023-04-02T04:44:03;100462.06;;;12.73;100.00
35647;BME280;28680;45.642;13.756;2023-04-02T04:46:57;100455.69;;;12.65;100.00
35647;BME280;28680;45.642;13.756;2023-04-02T04:49:53;100457.63;;;12.63;100.00
35647;BME280;28680;45.642;13.756;2023-04-02T04:52:28;100454.56;;;12.68;100.00
35647;BME280;28680;45.642;13.756;2023-04-02T04:54:58;100460.00;;;12.66;100.00
35647;BME280;28680;45.642;13.756;2023-04-02T04:57:36;100468.69;;;12.77;100.00
35647;BME280;28680;45.642;13.756;2023-04-02T05:02:56;100466.63;;;12.80;100.00
35647;BME280;28680;45.642;13.756;2023-04-02T05:05:32;100471.06;;;12.80;100.00
35647;BME280;28680;45.642;13.756;2023-04-02T05:08:25;100467.84;;;12.86;100.00
35647;BME280;28680;45.642;13.756;2023-04-02T05:11:00;100469.94;;;12.82;100.00
35647;BME280;28680;45.642;13.756;2023-04-02T05:13:55;100474.78;;;12.77;100.00
35647;BME280;28680;45.642;13.756;2023-04-02T05:16:44;100479.34;;;12.85;100.00
35647;BME280;28680;45.642;13.756;2023-04-02T05:19:25;100478.78;;;13.01;100.00
35647;BME280;28680;45.642;13.756;2023-04-02T05:24:55;100478.88;;;13.09;100.00
35647;BME280;28680;45.642;13.756;2023-04-02T05:27:40;100483.88;;;13.12;100.00
35647;BME280;28680;45.642;13.756;2023-04-02T05:32:55;100488.03;;;13.15;100.00
35647;BME280;28680;45.642;13.756;2023-04-02T05:35:31;100489.97;;;13.13;100.00
35647;BME280;28680;45.642;13.756;2023-04-02T05:37:59;100497.31;;;13.19;100.00
35647;BME280;28680;45.642;13.756;2023-04-02T05:40:41;100502.97;;;13.24;100.00
35647;BME280;28680;45.642;13.756;2023-04-02T05:43:13;100507.44;;;13.23;100.00
35647;BME280;28680;45.642;13.756;2023-04-02T13:13:02;100663.13;;;21.86;100.00
35647;BME280;28680;45.642;13.756;2023-04-02T13:15:33;100664.13;;;21.50;100.00
35647;BME280;28680;45.642;13.756;2023-04-02T13:18:21;100665.03;;;21.64;100.00
35647;BME280;28680;45.642;13.756;2023-04-02T13:21:05;100662.88;;;22.57;100.00
35647;BME280;28680;45.642;13.756;2023-04-02T13:23:37;100670.66;;;22.52;100.00
35647;BME280;28680;45.642;13.756;2023-04-02T13:31:28;100660.72;;;20.25;100.00
35647;BME280;28680;45.642;13.756;2023-04-02T13:34:03;100662.69;;;19.49;100.00
35647;BME280;28680;45.642;13.756;2023-04-02T13:36:29;100664.75;;;19.39;100.00
35647;BME280;28680;45.642;13.756;2023-04-02T13:38:56;100667.72;;;19.44;100.00
35647;BME280;28680;45.642;13.756;2023-04-02T13:41:25;100653.56;;;20.26;100.00
35647;BME280;28680;45.642;13.756;2023-04-02T13:43:58;100657.13;;;20.84;100.00
35647;BME280;28680;45.642;13.756;2023-04-02T13:46:31;100648.47;;;20.46;100.00
35647;BME280;28680;45.642;13.756;2023-04-02T13:48:58;100649.88;;;21.21;100.00
35647;BME280;28680;45.642;13.756;2023-04-02T13:54:11;100654.72;;;20.53;100.00
35647;BME280;28680;45.642;13.756;2023-04-02T13:56:39;100655.50;;;20.02;100.00
35647;BME280;28680;45.642;13.756;2023-04-02T13:59:06;100650.72;;;21.22;100.00
35647;BME280;28680;45.642;13.756;2023-04-02T14:01:32;100647.19;;;21.71;100.00
35647;BME280;28680;45.642;13.756;2023-04-02T14:03:58;100656.75;;;21.31;100.00
35647;BME280;28680;45.642;13.756;2023-04-02T14:09:25;100655.44;;;22.11;100.00
35647;BME280;28680;45.642;13.756;2023-04-02T14:24:43;100653.38;;;20.13;100.00
35647;BME280;28680;45.642;13.756;2023-04-02T14:30:22;100641.66;;;22.56;100.00
35647;BME280;28680;45.642;13.756;2023-04-02T14:33:39;100625.41;;;22.51;100.00
35647;BME280;28680;45.642;13.756;2023-04-02T14:42:44;100619.34;;;23.37;100.00
35647;BME280;28680;45.642;13.756;2023-04-02T14:45:24;100622.41;;;23.67;99.35
35647;BME280;28680;45.642;13.756;2023-04-02T14:48:00;100625.66;;;22.69;100.00
35647;BME280;28680;45.642;13.756;2023-04-02T14:50:37;100622.34;;;22.54;100.00
35647;BME280;28680;45.642;13.756;2023-04-02T14:56:11;100625.31;;;23.52;88.49
35647;BME280;28680;45.642;13.756;2023-04-02T14:58:43;100627.09;;;23.85;83.28
35647;BME280;28680;45.642;13.756;2023-04-02T15:01:33;100622.56;;;23.92;85.03
35647;BME280;28680;45.642;13.756;2023-04-02T15:04:13;100630.63;;;23.79;100.00
35647;BME280;28680;45.642;13.756;2023-04-02T15:06:48;100631.88;;;23.63;100.00
35647;BME280;28680;45.642;13.756;2023-04-02T15:09:27;100637.47;;;23.48;100.00
35647;BME280;28680;45.642;13.756;2023-04-02T15:12:08;100630.19;;;23.89;100.00
35647;BME280;28680;45.642;13.756;2023-04-02T15:14:49;100642.84;;;23.22;100.00
35647;BME280;28680;45.642;13.756;2023-04-02T15:17:19;100649.94;;;22.68;99.02
35647;BME280;28680;45.642;13.756;2023-04-02T15:19:46;100648.56;;;22.30;100.00
35647;BME280;28680;45.642;13.756;2023-04-02T15:22:45;100654.88;;;21.81;100.00
35647;BME280;28680;45.642;13.756;2023-04-02T15:25:45;100654.91;;;21.88;100.00
35647;BME280;28680;45.642;13.756;2023-04-02T15:43:16;100672.00;;;21.15;100.00
35647;BME280;28680;45.642;13.756;2023-04-02T15:51:50;100680.41;;;20.24;100.00
35647;BME280;28680;45.642;13.756;2023-04-02T16:00:26;100682.34;;;20.01;100.00
35647;BME280;28680;45.642;13.756;2023-04-02T16:11:33;100720.91;;;20.05;100.00
35647;BME280;28680;45.642;13.756;2023-04-02T16:14:28;100725.53;;;19.73;100.00
35647;BME280;28680;45.642;13.756;2023-04-02T16:17:12;100732.81;;;19.56;100.00
35647;BME280;28680;45.642;13.756;2023-04-02T16:19:56;100737.34;;;19.33;100.00
35647;BME280;28680;45.642;13.756;2023-04-02T16:22:28;100725.09;;;19.23;100.00
35647;BME280;28680;45.642;13.756;2023-04-02T16:25:17;100720.84;;;19.14;100.00
35647;BME280;28680;45.642;13.756;2023-04-02T16:31:49;100722.56;;;19.30;100.00
35647;BME280;28680;45.642;13.756;2023-04-02T16:37:38;100739.88;;;19.26;100.00
35647;BME280;28680;45.642;13.756;2023-04-02T16:46:23;100730.56;;;18.59;100.00
35647;BME280;28680;45.642;13.756;2023-04-02T17:22:36;100771.13;;;16.97;100.00
35647;BME280;28680;45.642;13.756;2023-04-02T17:34:37;100783.84;;;16.85;100.00
35647;BME280;28680;45.642;13.756;2023-04-02T18:06:35;100795.63;;;16.30;100.00
35647;BME280;28680;45.642;13.756;2023-04-02T18:16:09;100800.69;;;16.50;100.00
35647;BME280;28680;45.642;13.756;2023-04-02T18:30:42;100819.56;;;16.21;100.00
35647;BME280;28680;45.642;13.756;2023-04-02T18:36:45;100816.69;;;16.14;100.00
35647;BME280;28680;45.642;13.756;2023-04-02T18:39:23;100818.00;;;16.10;100.00
35647;BME280;28680;45.642;13.756;2023-04-02T18:42:27;100817.31;;;16.08;100.00
35647;BME280;28680;45.642;13.756;2023-04-02T18:51:24;100824.97;;;15.93;100.00
35647;BME280;28680;45.642;13.756;2023-04-02T18:56:52;100840.81;;;15.85;100.00
35647;BME280;28680;45.642;13.756;2023-04-02T18:59:41;100845.41;;;15.83;100.00
35647;BME280;28680;45.642;13.756;2023-04-02T19:05:26;100858.66;;;15.83;100.00
35647;BME280;28680;45.642;13.756;2023-04-02T19:11:05;100872.03;;;15.81;100.00
35647;BME280;28680;45.642;13.756;2023-04-02T19:13:34;100872.09;;;15.89;100.00
35647;BME280;28680;45.642;13.756;2023-04-02T19:17:00;100869.25;;;15.83;100.00
35647;BME280;28680;45.642;13.756;2023-04-02T19:23:55;100864.28;;;15.70;100.00
35647;BME280;28680;45.642;13.756;2023-04-02T19:27:06;100864.88;;;15.64;100.00
35647;BME280;28680;45.642;13.756;2023-04-02T19:33:01;100883.69;;;15.60;100.00
35647;BME280;28680;45.642;13.756;2023-04-02T19:44:20;100891.53;;;15.80;100.00
35647;BME280;28680;45.642;13.756;2023-04-02T19:46:49;100899.25;;;15.91;100.00
35647;BME280;28680;45.642;13.756;2023-04-02T19:49:28;100904.41;;;16.11;100.00
35647;BME280;28680;45.642;13.756;2023-04-02T19:51:58;100911.59;;;15.83;100.00
35647;BME280;28680;45.642;13.756;2023-04-02T19:54:27;100919.41;;;15.74;100.00
35647;BME280;28680;45.642;13.756;2023-04-02T19:56:54;100921.09;;;15.75;100.00
35647;BME280;28680;45.642;13.756;2023-04-02T19:59:20;100929.72;;;15.77;100.00
35647;BME280;28680;45.642;13.756;2023-04-02T20:01:46;100926.16;;;15.87;100.00
35647;BME280;28680;45.642;13.756;2023-04-02T20:04:13;100928.75;;;15.78;100.00
35647;BME280;28680;45.642;13.756;2023-04-02T20:06:40;100927.13;;;15.86;100.00
35647;BME280;28680;45.642;13.756;2023-04-02T20:09:12;100920.06;;;15.86;100.00
35647;BME280;28680;45.642;13.756;2023-04-02T20:11:41;100924.88;;;15.91;100.00
35647;BME280;28680;45.642;13.756;2023-04-02T20:16:55;100933.97;;;15.88;100.00
35647;BME280;28680;45.642;13.756;2023-04-02T20:19:23;100931.19;;;15.90;100.00
35647;BME280;28680;45.642;13.756;2023-04-02T20:21:49;100929.50;;;15.89;100.00
35647;BME280;28680;45.642;13.756;2023-04-02T20:24:16;100936.47;;;16.08;100.00
35647;BME280;28680;45.642;13.756;2023-04-02T20:26:59;100931.63;;;16.03;100.00
35647;BME280;28680;45.642;13.756;2023-04-02T20:29:25;100926.56;;;15.92;100.00
35647;BME280;28680;45.642;13.756;2023-04-02T20:35:26;100936.84;;;16.13;100.00
35647;BME280;28680;45.642;13.756;2023-04-02T20:38:03;100922.84;;;16.03;100.00
35647;BME280;28680;45.642;13.756;2023-04-02T20:40:53;100917.31;;;16.14;100.00
35647;BME280;28680;45.642;13.756;2023-04-02T20:43:44;100914.09;;;16.20;100.00
35647;BME280;28680;45.642;13.756;2023-04-02T20:46:31;100917.75;;;16.27;100.00
35647;BME280;28680;45.642;13.756;2023-04-02T20:52:24;100927.38;;;16.28;100.00
35647;BME280;28680;45.642;13.756;2023-04-02T20:55:07;100933.78;;;16.44;100.00
35647;BME280;28680;45.642;13.756;2023-04-02T20:57:36;100927.16;;;16.40;100.00
35647;BME280;28680;45.642;13.756;2023-04-02T21:00:06;100927.81;;;16.24;100.00
35647;BME280;28680;45.642;13.756;2023-04-02T21:02:33;100929.06;;;16.11;100.00
35647;BME280;28680;45.642;13.756;2023-04-02T21:04:59;100932.09;;;16.16;100.00
35647;BME280;28680;45.642;13.756;2023-04-02T21:07:31;100929.06;;;16.11;100.00
35647;BME280;28680;45.642;13.756;2023-04-02T21:10:35;100938.94;;;15.91;100.00
35647;BME280;28680;45.642;13.756;2023-04-02T21:16:53;100935.53;;;15.99;100.00
35647;BME280;28680;45.642;13.756;2023-04-02T21:45:09;100954.59;;;15.57;100.00
35647;BME280;28680;45.642;13.756;2023-04-02T21:47:36;100951.88;;;15.67;100.00
35647;BME280;28680;45.642;13.756;2023-04-02T21:50:01;100946.59;;;15.76;100.00
35647;BME280;28680;45.642;13.756;2023-04-02T21:52:30;100948.72;;;15.91;100.00
35647;BME280;28680;45.642;13.756;2023-04-02T21:54:57;100958.41;;;15.72;100.00
35647;BME280;28680;45.642;13.756;2023-04-02T21:57:22;100957.47;;;15.73;100.00
35647;BME280;28680;45.642;13.756;2023-04-02T21:59:48;100945.81;;;15.29;100.00
35647;BME280;28680;45.642;13.756;2023-04-02T22:02:14;100951.75;;;15.68;100.00
35647;BME280;28680;45.642;13.756;2023-04-02T22:04:40;100958.22;;;15.84;100.00
35647;BME280;28680;45.642;13.756;2023-04-02T22:07:06;100955.06;;;15.70;100.00
35647;BME280;28680;45.642;13.756;2023-04-02T22:09:32;100959.00;;;15.66;100.00
35647;BME280;28680;45.642;13.756;2023-04-02T22:11:58;100946.72;;;15.47;100.00
35647;BME280;28680;45.642;13.756;2023-04-02T22:14:24;100950.44;;;15.54;100.00
35647;BME280;28680;45.642;13.756;2023-04-02T22:16:53;100944.94;;;15.38;100.00
35647;BME280;28680;45.642;13.756;2023-04-02T22:19:19;100947.72;;;15.64;100.00
35647;BME280;28680;45.642;13.756;2023-04-02T22:21:46;100949.44;;;15.55;100.00
35647;BME280;28680;45.642;13.756;2023-04-02T22:24:15;100944.47;;;15.70;100.00
35647;BME280;28680;45.642;13.756;2023-04-02T22:26:44;100958.69;;;15.79;100.00
35647;BME280;28680;45.642;13.756;2023-04-02T22:29:13;100964.84;;;16.33;100.00
35647;BME280;28680;45.642;13.756;2023-04-02T22:31:40;100965.16;;;15.57;100.00
35647;BME280;28680;45.642;13.756;2023-04-02T22:34:06;100960.75;;;15.48;100.00
35647;BME280;28680;45.642;13.756;2023-04-02T22:36:35;100968.41;;;15.51;100.00
35647;BME280;28680;45.642;13.756;2023-04-02T22:39:23;100973.75;;;15.96;100.00
35647;BME280;28680;45.642;13.756;2023-04-02T22:41:49;100967.31;;;15.99;100.00
35647;BME280;28680;45.642;13.756;2023-04-02T22:44:15;100971.72;;;16.08;100.00
35647;BME280;28680;45.642;13.756;2023-04-02T22:47:20;100979.63;;;15.25;100.00
35647;BME280;28680;45.642;13.756;2023-04-02T22:49:46;100969.97;;;15.06;100.00
35647;BME280;28680;45.642;13.756;2023-04-02T22:52:12;100970.50;;;15.10;100.00
35647;BME280;28680;45.642;13.756;2023-04-02T22:54:38;100974.19;;;14.99;100.00
35647;BME280;28680;45.642;13.756;2023-04-02T22:57:05;100963.75;;;14.97;100.00
35647;BME280;28680;45.642;13.756;2023-04-02T23:03:11;100974.53;;;15.14;100.00
35647;BME280;28680;45.642;13.756;2023-04-02T23:05:37;100974.13;;;15.18;100.00
35647;BME280;28680;45.642;13.756;2023-04-02T23:08:04;100974.94;;;15.56;100.00
35647;BME280;28680;45.642;13.756;2023-04-02T23:10:31;100973.44;;;15.44;100.00
35647;BME280;28680;45.642;13.756;2023-04-02T23:12:57;100975.56;;;15.68;100.00
35647;BME280;28680;45.642;13.756;2023-04-02T23:15:23;100974.63;;;15.32;100.00
35647;BME280;28680;45.642;13.756;2023-04-02T23:17:55;100974.97;;;15.09;100.00
35647;BME280;28680;45.642;13.756;2023-04-02T23:20:23;100970.66;;;15.08;100.00
35647;BME280;28680;45.642;13.756;2023-04-02T23:22:49;100969.72;;;15.37;100.00
35647;BME280;28680;45.642;13.756;2023-04-02T23:25:15;100972.56;;;15.16;100.00
35647;BME280;28680;45.642;13.756;2023-04-02T23:27:41;100976.34;;;15.51;100.00
35647;BME280;28680;45.642;13.756;2023-04-02T23:30:07;100972.91;;;15.40;100.00
35647;BME280;28680;45.642;13.756;2023-04-02T23:32:33;100962.03;;;15.44;100.00
35647;BME280;28680;45.642;13.756;2023-04-02T23:34:59;100969.44;;;15.68;100.00
35647;BME280;28680;45.642;13.756;2023-04-02T23:37:25;100955.59;;;15.46;100.00
35647;BME280;28680;45.642;13.756;2023-04-02T23:39:51;100955.53;;;14.91;100.00
35647;BME280;28680;45.642;13.756;2023-04-02T23:42:17;100942.00;;;15.04;100.00
35647;BME280;28680;45.642;13.756;2023-04-02T23:44:43;100939.84;;;15.27;100.00
35647;BME280;28680;45.642;13.756;2023-04-02T23:47:09;100946.38;;;15.60;100.00
35647;BME280;28680;45.642;13.756;2023-04-02T23:49:34;100947.22;;;15.88;100.00
35647;BME280;28680;45.642;13.756;2023-04-02T23:52:00;100944.78;;;15.39;100.00
35647;BME280;28680;45.642;13.756;2023-04-02T23:54:26;100944.53;;;15.05;100.00
35647;BME280;28680;45.642;13.756;2023-04-02T23:56:52;100932.00;;;15.07;100.00
35647;BME280;28680;45.642;13.756;2023-04-02T23:59:18;100944.16;;;14.90;100.00
